createdAt,value
2024-01-10T00:00:26.590Z,165.23
2024-01-10T00:03:13.256Z,175.13
2024-01-10T00:05:40.200Z,215.90
2024-01-10T00:08:07.070Z,222.07
2024-01-10T00:10:33.581Z,194.33
2024-01-10T00:13:00.351Z,189.67
2024-01-10T00:15:26.771Z,220.80
2024-01-10T00:17:53.637Z,160.33
2024-01-10T00:20:20.103Z,144.53
2024-01-10T00:22:46.785Z,133.23
2024-01-10T00:25:13.415Z,112.27
2024-01-10T00:27:40.027Z,117.57
2024-01-10T00:30:07.323Z,97.03
2024-01-10T00:32:34.379Z,116.03
2024-01-10T00:35:00.875Z,107.37
2024-01-10T00:37:27.882Z,99.37
2024-01-10T00:39:54.224Z,107.17
2024-01-10T00:42:20.969Z,96.07
2024-01-10T00:44:47.408Z,95.23
2024-01-10T00:47:14.277Z,97.93
2024-01-10T00:49:40.730Z,94.67
2024-01-10T00:52:07.518Z,96.27
2024-01-10T00:54:33.926Z,90.53
2024-01-10T00:57:00.589Z,103.27
2024-01-10T00:59:27.098Z,100.87
2024-01-10T01:01:54.041Z,110.17
2024-01-10T01:04:21.210Z,107.20
2024-01-10T01:06:48.101Z,99.60
2024-01-10T01:09:15.835Z,88.43
2024-01-10T01:11:42.690Z,93.30
2024-01-10T01:14:09.192Z,88.67
2024-01-10T01:16:35.964Z,99.17
2024-01-10T01:19:02.361Z,103.53
2024-01-10T01:21:29.181Z,108.50
2024-01-10T01:23:55.649Z,97.47
2024-01-10T01:26:22.363Z,103.00
2024-01-10T01:28:48.928Z,108.90
2024-01-10T01:31:15.639Z,111.80
2024-01-10T01:33:42.092Z,102.03
2024-01-10T01:36:08.853Z,111.60
2024-01-10T01:38:36.005Z,105.23
2024-01-10T01:41:03.364Z,116.57
2024-01-10T01:43:29.772Z,113.03
2024-01-10T01:45:57.078Z,119.10
2024-01-10T01:48:28.007Z,123.17
2024-01-10T01:50:58.690Z,116.93
2024-01-10T01:53:25.753Z,125.33
2024-01-10T01:55:52.961Z,131.07
2024-01-10T01:58:21.074Z,136.90
2024-01-10T02:00:47.913Z,126.97
2024-01-10T02:03:14.558Z,113.07
2024-01-10T02:05:41.943Z,129.10
2024-01-10T02:08:09.179Z,119.60
2024-01-10T02:10:36.101Z,110.20
2024-01-10T02:13:02.591Z,121.43
2024-01-10T02:15:29.577Z,115.40
2024-01-10T02:17:56.402Z,112.53
2024-01-10T02:20:23.496Z,107.40
2024-01-10T02:22:50.957Z,117.50
2024-01-10T02:25:18.272Z,115.00
2024-01-10T02:27:44.838Z,114.27
2024-01-10T02:30:12.272Z,112.57
2024-01-10T02:32:39.288Z,127.30
2024-01-10T02:35:06.923Z,123.17
2024-01-10T02:37:33.467Z,145.57
2024-01-10T02:40:00.513Z,156.07
2024-01-10T02:42:29.076Z,161.27
2024-01-10T02:44:55.805Z,164.73
2024-01-10T02:47:22.506Z,164.80
2024-01-10T02:49:49.385Z,155.17
2024-01-10T02:52:16.073Z,159.27
2024-01-10T02:54:42.881Z,156.53
2024-01-10T02:57:09.194Z,156.03
2024-01-10T02:59:35.891Z,165.47
2024-01-10T03:02:02.390Z,173.73
2024-01-10T03:04:29.128Z,148.70
2024-01-10T03:06:55.569Z,156.50
2024-01-10T03:09:23.210Z,126.03
2024-01-10T03:11:49.638Z,109.87
2024-01-10T03:14:16.372Z,115.93
2024-01-10T03:16:42.961Z,124.20
2024-01-10T03:19:09.774Z,111.57
2024-01-10T03:21:36.187Z,120.57
2024-01-10T03:24:03.057Z,132.27
2024-01-10T03:26:30.818Z,158.57
2024-01-10T03:28:57.971Z,156.80
2024-01-10T03:31:24.528Z,149.53
2024-01-10T03:33:51.283Z,154.23
2024-01-10T03:36:18.600Z,155.90
2024-01-10T03:38:45.944Z,167.00
2024-01-10T03:41:16.604Z,176.00
2024-01-10T03:43:43.784Z,159.10
2024-01-10T03:46:10.981Z,164.17
2024-01-10T03:48:39.150Z,163.47
2024-01-10T03:51:05.571Z,148.83
2024-01-10T03:53:32.300Z,134.93
2024-01-10T03:55:58.876Z,165.57
2024-01-10T03:58:26.902Z,144.60
2024-01-10T04:00:53.392Z,142.30
2024-01-10T04:03:20.150Z,161.63
2024-01-10T04:05:46.681Z,146.07
2024-01-10T04:08:15.141Z,142.33
2024-01-10T04:10:42.829Z,138.03
2024-01-10T04:13:09.490Z,159.10
2024-01-10T04:15:35.896Z,134.40
2024-01-10T04:18:03.315Z,125.23
2024-01-10T04:20:30.191Z,120.03
2024-01-10T04:22:56.919Z,110.83
2024-01-10T04:25:23.376Z,116.07
2024-01-10T04:27:50.729Z,123.83
2024-01-10T04:30:17.267Z,116.13
2024-01-10T04:32:43.765Z,120.33
2024-01-10T04:35:10.677Z,114.83
2024-01-10T04:37:37.424Z,109.10
2024-01-10T04:40:06.783Z,188.27
2024-01-10T04:42:35.209Z,241.53
2024-01-10T04:45:02.114Z,174.63
2024-01-10T04:47:28.768Z,150.67
2024-01-10T04:49:55.588Z,136.93
2024-01-10T04:52:22.755Z,138.83
2024-01-10T04:54:50.488Z,145.03
2024-01-10T04:57:18.082Z,138.13
2024-01-10T04:59:45.110Z,136.87
2024-01-10T05:02:12.082Z,166.97
2024-01-10T05:04:38.800Z,147.17
2024-01-10T05:07:05.256Z,128.33
2024-01-10T05:09:32.156Z,141.87
2024-01-10T05:11:58.597Z,129.43
2024-01-10T05:14:25.369Z,142.87
2024-01-10T05:16:54.016Z,151.73
2024-01-10T05:19:20.782Z,129.47
2024-01-10T05:21:47.401Z,130.67
2024-01-10T05:24:14.259Z,124.30
2024-01-10T05:26:40.622Z,125.10
2024-01-10T05:29:08.214Z,137.53
2024-01-10T05:31:34.589Z,135.23
2024-01-10T05:34:01.426Z,123.07
2024-01-10T05:36:27.926Z,135.30
2024-01-10T05:38:55.329Z,137.03
2024-01-10T05:41:22.992Z,132.43
2024-01-10T05:43:50.635Z,129.03
2024-01-10T05:46:17.374Z,141.20
2024-01-10T05:48:44.713Z,135.33
2024-01-10T05:51:11.256Z,130.97
2024-01-10T05:53:38.046Z,154.07
2024-01-10T05:56:06.782Z,130.67
2024-01-10T05:58:33.702Z,130.60
2024-01-10T06:01:00.861Z,130.83
2024-01-10T06:03:28.924Z,140.33
2024-01-10T06:05:55.796Z,139.97
2024-01-10T06:08:26.003Z,134.30
2024-01-10T06:10:53.046Z,147.10
2024-01-10T06:13:19.824Z,147.93
2024-01-10T06:15:46.657Z,142.63
2024-01-10T06:18:13.804Z,137.63
2024-01-10T06:20:40.376Z,209.73
2024-01-10T06:23:07.493Z,189.60
2024-01-10T06:25:33.954Z,220.60
2024-01-10T06:28:01.084Z,282.73
2024-01-10T06:30:27.949Z,276.57
2024-01-10T06:32:55.809Z,224.93
2024-01-10T06:35:22.631Z,196.90
2024-01-10T06:37:49.784Z,194.77
2024-01-10T06:40:16.846Z,234.67
2024-01-10T06:42:43.834Z,242.70
2024-01-10T06:45:12.230Z,254.13
2024-01-10T06:47:39.266Z,150.57
2024-01-10T06:50:06.713Z,142.60
2024-01-10T06:52:33.568Z,135.53
2024-01-10T06:54:59.888Z,143.30
2024-01-10T06:57:27.298Z,135.83
2024-01-10T06:59:53.713Z,130.77
2024-01-10T07:02:20.706Z,129.97
2024-01-10T07:04:48.694Z,137.17
2024-01-10T07:07:17.549Z,132.47
2024-01-10T07:09:43.923Z,134.10
2024-01-10T07:12:10.659Z,117.27
2024-01-10T07:14:37.350Z,124.53
2024-01-10T07:17:04.354Z,125.17
2024-01-10T07:19:31.729Z,132.27
2024-01-10T07:21:58.443Z,139.80
2024-01-10T07:24:24.790Z,120.90
2024-01-10T07:26:51.862Z,141.43
2024-01-10T07:29:19.588Z,194.30
2024-01-10T07:31:46.445Z,191.20
2024-01-10T07:34:12.829Z,196.30
2024-01-10T07:36:43.312Z,196.47
2024-01-10T07:39:10.410Z,200.57
2024-01-10T07:41:37.408Z,199.57
2024-01-10T07:44:04.016Z,218.20
2024-01-10T07:46:30.796Z,245.63
2024-01-10T07:48:57.231Z,217.87
2024-01-10T07:51:24.177Z,246.40
2024-01-10T07:53:50.548Z,284.53
2024-01-10T07:56:17.435Z,350.87
2024-01-10T07:58:43.866Z,445.00
2024-01-10T08:01:11.506Z,439.07
2024-01-10T08:03:38.153Z,334.83
2024-01-10T08:06:06.920Z,337.23
2024-01-10T08:08:35.222Z,361.70
2024-01-10T08:11:02.001Z,246.83
2024-01-10T08:13:28.668Z,229.57
2024-01-10T08:15:55.732Z,240.07
2024-01-10T08:18:22.526Z,232.93
2024-01-10T08:20:49.346Z,227.13
2024-01-10T08:23:15.817Z,207.30
2024-01-10T08:25:44.673Z,208.03
2024-01-10T08:28:11.144Z,207.70
2024-01-10T08:30:37.918Z,226.90
2024-01-10T08:33:05.437Z,248.47
2024-01-10T08:35:32.797Z,330.23
2024-01-10T08:37:59.645Z,298.00
2024-01-10T08:40:27.648Z,290.50
2024-01-10T08:42:54.259Z,299.27
2024-01-10T08:45:21.675Z,236.90
2024-01-10T08:47:48.171Z,251.50
2024-01-10T08:50:14.935Z,271.20
2024-01-10T08:52:41.549Z,246.80
2024-01-10T08:55:12.155Z,259.77
2024-01-10T08:57:40.411Z,255.73
2024-01-10T09:00:07.881Z,269.47
2024-01-10T09:02:37.184Z,263.27
2024-01-10T09:05:04.629Z,262.70
2024-01-10T09:07:31.336Z,262.03
2024-01-10T09:09:58.602Z,259.37
2024-01-10T09:12:25.169Z,281.70
2024-01-10T09:14:52.122Z,279.10
2024-01-10T09:17:18.597Z,310.97
2024-01-10T09:19:45.479Z,293.77
2024-01-10T09:22:12.089Z,306.73
2024-01-10T09:24:41.835Z,276.40
2024-01-10T09:27:09.747Z,261.13
2024-01-10T09:29:36.473Z,247.17
2024-01-10T09:32:03.812Z,266.03
2024-01-10T09:34:31.077Z,261.03
2024-01-10T09:36:57.586Z,248.90
2024-01-10T09:39:24.557Z,234.73
2024-01-10T09:41:53.026Z,232.67
2024-01-10T09:44:21.881Z,244.07
2024-01-10T09:46:55.756Z,193.43
2024-01-10T09:49:22.716Z,200.03
2024-01-10T09:51:49.797Z,207.03
2024-01-10T09:54:17.086Z,207.87
2024-01-10T09:56:43.730Z,202.23
2024-01-10T09:59:11.263Z,198.07
2024-01-10T10:01:39.572Z,204.33
2024-01-10T10:04:09.925Z,183.13
2024-01-10T10:06:36.588Z,195.47
2024-01-10T10:09:04.580Z,195.53
2024-01-10T10:11:33.087Z,181.03
2024-01-10T10:14:15.369Z,183.60
2024-01-10T10:16:41.885Z,186.63
2024-01-10T10:19:10.078Z,178.83
2024-01-10T10:21:36.557Z,188.37
2024-01-10T10:24:07.631Z,181.97
2024-01-10T10:26:35.203Z,199.03
2024-01-10T10:29:03.310Z,182.13
2024-01-10T10:31:31.575Z,206.73
2024-01-10T10:34:01.478Z,192.53
2024-01-10T10:36:28.005Z,186.40
2024-01-10T10:38:54.712Z,202.13
2024-01-10T10:41:22.066Z,193.73
2024-01-10T10:43:50.594Z,204.50
2024-01-10T10:46:17.205Z,216.10
2024-01-10T10:48:44.531Z,203.00
2024-01-10T10:51:12.400Z,204.60
2024-01-10T10:53:44.169Z,194.03
2024-01-10T10:56:12.401Z,190.63
2024-01-10T10:58:46.517Z,195.13
2024-01-10T11:01:14.797Z,196.23
2024-01-10T11:03:47.674Z,212.27
2024-01-10T11:06:14.802Z,198.70
2024-01-10T11:08:51.185Z,189.93
2024-01-10T11:11:37.777Z,198.80
2024-01-10T11:14:23.040Z,172.03
2024-01-10T11:17:12.433Z,141.37
2024-01-10T11:19:54.026Z,129.87
2024-01-10T11:22:26.626Z,139.70
2024-01-10T11:24:53.670Z,138.80
2024-01-10T11:27:20.186Z,146.17
2024-01-10T11:29:47.998Z,138.33
2024-01-10T11:32:18.924Z,142.80
2024-01-10T11:34:55.120Z,131.50
2024-01-10T11:37:21.684Z,132.83
2024-01-10T11:39:48.419Z,121.17
2024-01-10T11:42:40.945Z,125.63
2024-01-10T11:45:08.755Z,127.47
2024-01-10T11:47:39.033Z,131.63
2024-01-10T11:50:08.049Z,158.70
2024-01-10T11:52:36.913Z,150.23
2024-01-10T11:55:05.480Z,146.67
2024-01-10T11:57:35.563Z,153.63
2024-01-10T12:00:05.838Z,147.47
2024-01-10T12:02:32.973Z,142.33
2024-01-10T12:04:59.874Z,112.03
2024-01-10T12:07:27.913Z,71.90
2024-01-10T12:09:55.363Z,93.83
2024-01-10T12:12:21.790Z,103.57
2024-01-10T12:14:48.554Z,96.37
2024-01-10T12:17:15.143Z,105.80
2024-01-10T12:19:45.405Z,118.77
2024-01-10T12:22:11.940Z,107.17
2024-01-10T12:24:48.638Z,109.27
2024-01-10T12:27:18.480Z,124.27
2024-01-10T12:29:48.928Z,136.10
2024-01-10T12:32:19.246Z,128.53
2024-01-10T12:34:46.501Z,158.77
2024-01-10T12:37:13.161Z,129.73
2024-01-10T12:39:41.126Z,125.63
2024-01-10T12:42:09.936Z,124.70
2024-01-10T12:44:37.121Z,124.23
2024-01-10T12:47:04.133Z,121.80
2024-01-10T12:49:31.359Z,120.90
2024-01-10T12:51:58.274Z,121.07
2024-01-10T12:54:25.239Z,106.83
2024-01-10T12:56:52.737Z,103.87
2024-01-10T12:59:19.506Z,113.27
2024-01-10T13:01:46.322Z,111.27
2024-01-10T13:04:13.200Z,116.03
2024-01-10T13:06:40.897Z,109.27
2024-01-10T13:09:08.053Z,112.93
2024-01-10T13:11:34.802Z,107.43
2024-01-10T13:14:01.991Z,108.73
2024-01-10T13:16:29.050Z,98.00
2024-01-10T13:18:58.090Z,99.17
2024-01-10T13:21:25.309Z,89.00
2024-01-10T13:23:52.384Z,81.13
2024-01-10T13:26:19.647Z,74.73
2024-01-10T13:28:46.961Z,68.00
2024-01-10T13:31:14.766Z,62.80
2024-01-10T13:33:46.853Z,56.30
2024-01-10T13:36:14.955Z,53.03
2024-01-10T13:38:41.986Z,60.30
2024-01-10T13:41:09.544Z,56.47
2024-01-10T13:43:36.784Z,69.33
2024-01-10T13:46:07.346Z,70.70
2024-01-10T13:48:36.927Z,64.90
2024-01-10T13:51:03.745Z,74.67
2024-01-10T13:53:31.032Z,71.77
2024-01-10T13:55:57.967Z,71.50
2024-01-10T13:58:25.543Z,66.90
2024-01-10T14:00:52.753Z,74.53
2024-01-10T14:03:19.681Z,67.13
2024-01-10T14:05:47.175Z,62.53
2024-01-10T14:08:13.937Z,65.43
2024-01-10T14:10:42.353Z,69.47
2024-01-10T14:13:09.026Z,75.23
2024-01-10T14:15:36.140Z,84.13
2024-01-10T14:18:03.436Z,72.70
2024-01-10T14:20:30.632Z,71.27
2024-01-10T14:22:58.109Z,66.47
2024-01-10T14:25:25.261Z,69.93
2024-01-10T14:27:53.177Z,92.60
2024-01-10T14:30:20.196Z,86.83
2024-01-10T14:32:48.085Z,80.07
2024-01-10T14:35:16.011Z,75.13
2024-01-10T14:37:43.257Z,68.83
2024-01-10T14:40:11.590Z,65.70
2024-01-10T14:42:38.764Z,75.07
2024-01-10T14:45:06.409Z,74.90
2024-01-10T14:47:33.322Z,86.20
2024-01-10T14:50:00.692Z,103.67
2024-01-10T14:52:27.958Z,95.20
2024-01-10T14:54:55.234Z,94.17
2024-01-10T14:57:22.356Z,111.33
2024-01-10T14:59:49.601Z,111.33
2024-01-10T15:02:19.228Z,112.53
2024-01-10T15:04:47.141Z,93.53
2024-01-10T15:07:14.992Z,96.57
2024-01-10T15:09:43.871Z,98.47
2024-01-10T15:12:11.052Z,110.67
2024-01-10T15:14:41.849Z,101.93
2024-01-10T15:17:10.204Z,126.23
2024-01-10T15:19:38.497Z,136.53
2024-01-10T15:22:06.504Z,126.17
2024-01-10T15:24:33.945Z,114.53
2024-01-10T15:27:09.147Z,109.87
2024-01-10T15:29:37.269Z,129.20
2024-01-10T15:32:05.228Z,115.70
2024-01-10T15:34:32.628Z,116.23
2024-01-10T15:36:59.516Z,117.43
2024-01-10T15:39:26.655Z,108.73
2024-01-10T15:41:53.485Z,94.70
2024-01-10T15:44:22.098Z,97.60
2024-01-10T15:46:50.367Z,97.70
2024-01-10T15:49:18.756Z,95.40
2024-01-10T15:51:46.192Z,103.87
2024-01-10T15:54:13.687Z,100.17
2024-01-10T15:56:41.970Z,106.00
2024-01-10T15:59:09.776Z,101.23
2024-01-10T16:01:37.005Z,107.43
2024-01-10T16:04:04.688Z,94.97
2024-01-10T16:06:33.267Z,103.17
2024-01-10T16:09:01.433Z,95.73
2024-01-10T16:11:28.080Z,95.03
2024-01-10T16:13:55.278Z,89.23
2024-01-10T16:16:30.835Z,106.93
2024-01-10T16:18:59.291Z,82.13
2024-01-10T16:21:26.781Z,87.43
2024-01-10T16:23:53.833Z,90.23
2024-01-10T16:26:20.343Z,82.10
2024-01-10T16:28:49.074Z,80.33
2024-01-10T16:31:17.265Z,83.10
2024-01-10T16:33:44.341Z,86.77
2024-01-10T16:36:10.876Z,99.70
2024-01-10T16:38:38.526Z,97.67
2024-01-10T16:41:04.997Z,97.97
2024-01-10T16:43:32.054Z,91.10
2024-01-10T16:45:58.681Z,91.73
2024-01-10T16:48:26.232Z,85.33
2024-01-10T16:50:55.264Z,99.93
2024-01-10T16:53:22.168Z,89.43
2024-01-10T16:55:51.903Z,100.33
2024-01-10T16:58:19.039Z,95.10
2024-01-10T17:00:45.870Z,95.73
2024-01-10T17:03:13.115Z,97.70
2024-01-10T17:05:44.185Z,113.10
2024-01-10T17:08:12.136Z,120.67
2024-01-10T17:10:38.903Z,101.37
2024-01-10T17:13:05.966Z,122.60
2024-01-10T17:15:33.146Z,107.83
2024-01-10T17:18:00.836Z,102.97
2024-01-10T17:20:27.436Z,116.00
2024-01-10T17:22:55.060Z,127.47
2024-01-10T17:25:23.675Z,130.17
2024-01-10T17:27:50.942Z,129.17
2024-01-10T17:30:17.784Z,116.83
2024-01-10T17:32:45.455Z,127.40
2024-01-10T17:35:16.281Z,134.07
2024-01-10T17:37:44.994Z,137.63
2024-01-10T17:40:11.964Z,140.97
2024-01-10T17:42:39.188Z,141.03
2024-01-10T17:45:07.355Z,147.27
2024-01-10T17:47:35.024Z,143.50
2024-01-10T17:50:02.186Z,150.10
2024-01-10T17:52:29.850Z,148.37
2024-01-10T17:54:56.979Z,137.63
2024-01-10T17:57:27.289Z,127.43
2024-01-10T17:59:54.702Z,140.87
2024-01-10T18:02:22.066Z,128.90
2024-01-10T18:04:50.342Z,124.67
2024-01-10T18:07:17.875Z,126.13
2024-01-10T18:09:44.979Z,128.37
2024-01-10T18:12:12.105Z,125.57
2024-01-10T18:14:39.495Z,135.03
2024-01-10T18:17:07.044Z,132.53
2024-01-10T18:19:34.393Z,156.80
2024-01-10T18:22:01.612Z,156.87
2024-01-10T18:24:28.372Z,224.73
2024-01-10T18:26:55.805Z,223.90
2024-01-10T18:29:23.362Z,269.73
2024-01-10T18:31:50.378Z,270.00
2024-01-10T18:34:17.302Z,267.70
2024-01-10T18:36:44.749Z,242.63
2024-01-10T18:39:13.172Z,206.07
2024-01-10T18:41:41.617Z,216.73
2024-01-10T18:44:09.117Z,266.60
2024-01-10T18:46:41.948Z,313.40
2024-01-10T18:49:09.074Z,305.73
2024-01-10T18:51:36.502Z,233.10
2024-01-10T18:54:03.834Z,222.97
2024-01-10T18:56:31.366Z,214.30
2024-01-10T18:58:58.757Z,228.87
2024-01-10T19:01:26.107Z,213.57
2024-01-10T19:03:54.215Z,229.70
2024-01-10T19:06:21.341Z,228.70
2024-01-10T19:08:48.633Z,215.83
2024-01-10T19:11:15.681Z,187.00
2024-01-10T19:13:42.935Z,188.23
2024-01-10T19:16:10.730Z,194.60
2024-01-10T19:18:37.436Z,196.73
2024-01-10T19:21:05.346Z,185.80
2024-01-10T19:23:32.427Z,197.90
2024-01-10T19:25:59.735Z,211.63
2024-01-10T19:28:27.685Z,203.90
2024-01-10T19:30:59.128Z,212.27
2024-01-10T19:33:26.544Z,213.87
2024-01-10T19:35:54.251Z,242.90
2024-01-10T19:38:24.122Z,256.20
2024-01-10T19:40:51.569Z,242.50
2024-01-10T19:43:26.991Z,314.13
2024-01-10T19:45:54.603Z,436.53
2024-01-10T19:48:21.593Z,420.60
2024-01-10T19:50:50.017Z,382.47
2024-01-10T19:53:20.674Z,339.33
2024-01-10T19:55:48.416Z,370.93
2024-01-10T19:58:15.219Z,342.93
2024-01-10T20:00:42.954Z,304.40
2024-01-10T20:03:09.492Z,323.40
2024-01-10T20:05:37.972Z,309.67
2024-01-10T20:08:04.939Z,314.63
2024-01-10T20:10:33.083Z,311.20
2024-01-10T20:12:59.961Z,310.43
2024-01-10T20:15:26.944Z,265.17
2024-01-10T20:17:54.833Z,232.57
2024-01-10T20:20:22.628Z,253.13
2024-01-10T20:22:49.382Z,279.67
2024-01-10T20:25:16.620Z,282.43
2024-01-10T20:27:43.258Z,242.03
2024-01-10T20:30:10.700Z,258.40
2024-01-10T20:32:39.122Z,246.80
2024-01-10T20:35:09.547Z,246.70
2024-01-10T20:37:36.450Z,240.33
2024-01-10T20:40:05.054Z,228.80
2024-01-10T20:42:32.544Z,224.90
2024-01-10T20:45:00.419Z,226.47
2024-01-10T20:47:30.438Z,223.93
2024-01-10T20:49:59.166Z,221.23
2024-01-10T20:52:26.407Z,226.80
2024-01-10T20:54:53.634Z,209.30
2024-01-10T20:57:20.619Z,200.37
2024-01-10T20:59:48.418Z,191.70
2024-01-10T21:02:15.206Z,201.80
2024-01-10T21:04:42.171Z,201.93
2024-01-10T21:07:13.419Z,198.37
2024-01-10T21:09:44.125Z,204.77
2024-01-10T21:12:12.507Z,210.33
2024-01-10T21:14:43.841Z,222.50
2024-01-10T21:17:11.968Z,228.57
2024-01-10T21:19:39.216Z,255.63
2024-01-10T21:22:06.078Z,252.80
2024-01-10T21:24:37.193Z,250.83
2024-01-10T21:27:04.605Z,246.03
2024-01-10T21:29:31.584Z,284.93
2024-01-10T21:31:58.246Z,249.80
2024-01-10T21:34:25.164Z,371.53
2024-01-10T21:36:51.928Z,363.57
2024-01-10T21:39:18.883Z,282.43
2024-01-10T21:41:45.704Z,356.87
2024-01-10T21:44:13.755Z,327.00
2024-01-10T21:46:40.337Z,280.73
2024-01-10T21:49:07.682Z,244.87
2024-01-10T21:51:34.298Z,236.93
2024-01-10T21:54:01.229Z,221.07
2024-01-10T21:56:27.715Z,214.57
2024-01-10T21:58:54.623Z,210.77
2024-01-10T22:01:21.255Z,236.50
2024-01-10T22:03:50.422Z,234.37
2024-01-10T22:06:17.000Z,290.53
2024-01-10T22:08:44.502Z,310.03
2024-01-10T22:11:12.100Z,307.53
2024-01-10T22:13:38.963Z,464.47
2024-01-10T22:16:07.439Z,361.53
2024-01-10T22:18:34.558Z,306.00
2024-01-10T22:21:01.233Z,251.33
2024-01-10T22:23:28.206Z,464.63
2024-01-10T22:25:56.373Z,377.20
2024-01-10T22:28:23.469Z,391.27
2024-01-10T22:30:51.010Z,357.93
2024-01-10T22:33:20.093Z,236.03
2024-01-10T22:35:47.437Z,206.63
2024-01-10T22:38:14.261Z,258.40
2024-01-10T22:40:40.800Z,220.97
2024-01-10T22:43:07.499Z,240.33
2024-01-10T22:45:33.992Z,202.60
2024-01-10T22:48:00.910Z,209.27
2024-01-10T22:50:27.515Z,209.70
2024-01-10T22:52:55.869Z,201.77
2024-01-10T22:55:22.367Z,221.27
2024-01-10T22:57:51.758Z,195.33
2024-01-10T23:00:21.966Z,171.57
2024-01-10T23:02:49.563Z,189.37
2024-01-10T23:05:16.349Z,179.60
2024-01-10T23:07:43.364Z,159.23
2024-01-10T23:10:10.141Z,172.40
2024-01-10T23:12:36.990Z,152.73
2024-01-10T23:15:03.825Z,148.80
2024-01-10T23:17:30.765Z,172.47
2024-01-10T23:19:57.521Z,150.83
2024-01-10T23:22:24.405Z,156.10
2024-01-10T23:24:51.105Z,159.63
2024-01-10T23:27:18.181Z,159.20
2024-01-10T23:29:44.744Z,162.90
2024-01-10T23:32:11.949Z,151.30
2024-01-10T23:34:39.137Z,145.70
2024-01-10T23:37:09.497Z,154.27
2024-01-10T23:39:36.312Z,171.23
2024-01-10T23:42:03.797Z,174.33
2024-01-10T23:44:30.410Z,163.43
2024-01-10T23:46:57.597Z,168.93
2024-01-10T23:49:24.197Z,149.17
2024-01-10T23:51:51.392Z,145.33
2024-01-10T23:54:18.530Z,134.87
2024-01-10T23:56:45.196Z,133.20
2024-01-10T23:59:11.555Z,126.50
